createdAt,value
2023-05-14T00:02:53.336Z,10.33
2023-05-14T00:05:55.689Z,10.36
2023-05-14T00:08:57.986Z,10.45
2023-05-14T00:12:00.135Z,10.36
2023-05-14T00:15:02.625Z,10.50
2023-05-14T00:18:04.938Z,10.53
2023-05-14T00:21:07.189Z,10.49
2023-05-14T00:24:09.342Z,10.49
2023-05-14T00:27:11.632Z,10.65
2023-05-14T00:30:13.950Z,10.57
2023-05-14T00:33:16.195Z,10.66
2023-05-14T00:36:18.388Z,10.71
2023-05-14T00:39:20.979Z,10.65
2023-05-14T00:42:23.215Z,10.63
2023-05-14T00:45:25.726Z,10.57
2023-05-14T00:48:27.977Z,10.46
2023-05-14T00:51:30.345Z,10.70
2023-05-14T00:54:33.027Z,10.70
2023-05-14T00:57:36.523Z,10.59
2023-05-14T01:00:39.343Z,10.49
2023-05-14T01:03:41.870Z,10.51
2023-05-14T01:07:24.854Z,10.45
2023-05-14T01:10:39.145Z,10.50
2023-05-14T01:13:58.724Z,10.49
2023-05-14T01:17:02.859Z,10.30
2023-05-14T01:20:05.910Z,10.31
2023-05-14T01:23:08.137Z,10.29
2023-05-14T01:26:10.437Z,10.15
2023-05-14T01:29:33.515Z,10.13
2023-05-14T01:32:36.259Z,10.03
2023-05-14T01:35:38.872Z,10.04
2023-05-14T01:38:45.617Z,10.04
2023-05-14T01:41:48.850Z,10.22
2023-05-14T01:44:51.124Z,10.30
2023-05-14T01:47:53.905Z,10.38
2023-05-14T01:50:56.155Z,10.34
2023-05-14T01:53:58.348Z,10.30
2023-05-14T01:57:00.643Z,10.40
2023-05-14T02:00:04.245Z,10.25
2023-05-14T02:03:06.477Z,10.32
2023-05-14T02:06:08.801Z,10.10
2023-05-14T02:09:11.278Z,10.11
2023-05-14T02:12:13.469Z,10.23
2023-05-14T02:15:15.657Z,10.08
2023-05-14T02:18:17.907Z,10.00
2023-05-14T02:21:20.086Z,10.02
2023-05-14T02:24:22.560Z,9.94
2023-05-14T02:27:25.001Z,10.03
2023-05-14T02:30:27.197Z,10.03
2023-05-14T02:33:29.464Z,9.92
2023-05-14T02:36:31.874Z,9.96
2023-05-14T02:39:34.068Z,9.87
2023-05-14T02:42:36.264Z,9.79
2023-05-14T02:45:38.484Z,9.82
2023-05-14T02:48:41.045Z,9.81
2023-05-14T02:51:43.242Z,9.80
2023-05-14T02:54:45.536Z,9.81
2023-05-14T02:57:47.854Z,9.73
2023-05-14T03:00:50.134Z,9.82
2023-05-14T03:03:52.864Z,9.91
2023-05-14T03:06:55.038Z,9.99
2023-05-14T03:09:57.221Z,9.97
2023-05-14T03:12:59.426Z,10.01
2023-05-14T03:16:01.699Z,10.00
2023-05-14T03:19:04.033Z,9.99
2023-05-14T03:22:06.392Z,10.07
2023-05-14T03:25:08.963Z,9.98
2023-05-14T03:28:11.121Z,10.03
2023-05-14T03:31:13.346Z,9.97
2023-05-14T03:34:15.578Z,10.16
2023-05-14T03:37:17.779Z,10.09
2023-05-14T03:40:21.420Z,10.15
2023-05-14T03:43:24.028Z,10.21
2023-05-14T03:46:26.202Z,10.23
2023-05-14T03:49:28.387Z,10.33
2023-05-14T03:52:30.737Z,10.26
2023-05-14T03:55:32.912Z,10.37
2023-05-14T03:58:35.120Z,10.25
2023-05-14T04:01:37.352Z,10.45
2023-05-14T04:04:40.214Z,10.50
2023-05-14T04:07:42.435Z,10.40
2023-05-14T04:10:44.617Z,10.33
2023-05-14T04:13:46.824Z,10.54
2023-05-14T04:16:49.088Z,10.54
2023-05-14T04:19:51.403Z,10.63
2023-05-14T04:22:54.181Z,10.60
2023-05-14T04:25:56.404Z,10.64
2023-05-14T04:29:02.804Z,10.63
2023-05-14T04:32:05.643Z,10.56
2023-05-14T04:35:10.069Z,10.47
2023-05-14T04:38:14.125Z,10.55
2023-05-14T04:41:16.332Z,10.64
2023-05-14T04:44:18.515Z,10.66
2023-05-14T04:47:21.218Z,10.67
2023-05-14T04:50:23.727Z,10.67
2023-05-14T04:53:26.154Z,10.69
2023-05-14T04:56:28.304Z,10.63
2023-05-14T04:59:31.259Z,10.62
2023-05-14T05:02:34.811Z,10.71
2023-05-14T05:05:37.117Z,10.49
2023-05-14T05:08:39.828Z,10.49
2023-05-14T05:11:42.226Z,10.64
2023-05-14T05:14:47.442Z,10.56
2023-05-14T05:17:49.690Z,10.61
2023-05-14T05:20:51.878Z,10.55
2023-05-14T05:23:54.050Z,10.63
2023-05-14T05:26:56.563Z,10.76
2023-05-14T05:29:58.951Z,10.73
2023-05-14T05:33:01.285Z,10.81
2023-05-14T05:36:03.573Z,10.87
2023-05-14T05:39:06.223Z,10.71
2023-05-14T05:42:08.574Z,10.81
2023-05-14T05:45:11.163Z,10.87
2023-05-14T05:48:13.491Z,10.97
2023-05-14T05:51:15.841Z,10.81
2023-05-14T05:54:18.037Z,10.90
2023-05-14T05:57:22.923Z,10.90
2023-05-14T06:00:26.902Z,10.88
2023-05-14T06:03:29.244Z,10.90
2023-05-14T06:06:32.745Z,11.02
2023-05-14T06:09:34.916Z,11.06
2023-05-14T06:12:37.218Z,11.03
2023-05-14T06:15:39.466Z,11.10
2023-05-14T06:18:41.670Z,11.13
2023-05-14T06:21:44.343Z,11.09
2023-05-14T06:24:46.564Z,11.10
2023-05-14T06:27:48.808Z,11.19
2023-05-14T06:30:51.019Z,11.19
2023-05-14T06:33:53.200Z,11.10
2023-05-14T06:36:55.386Z,11.20
2023-05-14T06:39:58.111Z,11.28
2023-05-14T06:43:00.494Z,11.26
2023-05-14T06:46:02.721Z,11.19
2023-05-14T06:49:05.395Z,11.26
2023-05-14T06:52:07.833Z,11.24
2023-05-14T06:55:10.207Z,11.14
2023-05-14T06:58:12.449Z,11.22
2023-05-14T07:01:14.782Z,11.19
2023-05-14T07:04:17.142Z,11.30
2023-05-14T07:07:21.308Z,11.31
2023-05-14T07:10:24.035Z,11.36
2023-05-14T07:13:28.621Z,11.45
2023-05-14T07:16:31.174Z,11.41
2023-05-14T07:19:33.499Z,11.40
2023-05-14T07:22:35.705Z,11.49
2023-05-14T07:25:38.444Z,11.48
2023-05-14T07:28:40.608Z,11.44
2023-05-14T07:31:42.963Z,11.57
2023-05-14T07:34:45.347Z,11.65
2023-05-14T07:37:47.747Z,11.65
2023-05-14T07:40:49.947Z,11.81
2023-05-14T07:43:52.135Z,11.70
2023-05-14T07:46:54.343Z,11.80
2023-05-14T07:49:57.310Z,11.88
2023-05-14T07:52:59.504Z,12.12
2023-05-14T07:56:01.722Z,12.19
2023-05-14T07:59:03.946Z,12.04
2023-05-14T08:02:06.902Z,12.24
2023-05-14T08:05:10.068Z,12.47
2023-05-14T08:08:12.632Z,12.47
2023-05-14T08:11:14.868Z,12.64
2023-05-14T08:14:17.092Z,12.52
2023-05-14T08:17:19.318Z,12.62
2023-05-14T08:20:21.861Z,12.60
2023-05-14T08:23:24.182Z,12.69
2023-05-14T08:26:26.536Z,12.74
2023-05-14T08:29:28.858Z,12.78
2023-05-14T08:32:31.219Z,12.89
2023-05-14T08:35:33.752Z,12.83
2023-05-14T08:38:35.998Z,12.83
2023-05-14T08:41:38.969Z,12.87
2023-05-14T08:44:54.086Z,12.77
2023-05-14T08:47:56.965Z,12.81
2023-05-14T08:50:59.627Z,12.68
2023-05-14T08:54:03.427Z,12.85
2023-05-14T08:57:06.298Z,12.86
2023-05-14T09:00:11.791Z,12.86
2023-05-14T09:03:15.049Z,12.86
2023-05-14T09:06:17.545Z,12.71
2023-05-14T09:09:23.203Z,12.82
2023-05-14T09:12:25.391Z,12.87
2023-05-14T09:15:28.176Z,12.77
2023-05-14T09:18:30.651Z,12.83
2023-05-14T09:21:33.677Z,12.92
2023-05-14T09:24:36.173Z,12.90
2023-05-14T09:27:38.545Z,12.87
2023-05-14T09:30:40.741Z,12.89
2023-05-14T09:33:43.341Z,12.90
2023-05-14T09:36:45.521Z,12.86
2023-05-14T09:39:47.674Z,12.92
2023-05-14T09:42:49.985Z,12.88
2023-05-14T09:45:53.020Z,12.93
2023-05-14T09:48:56.530Z,13.01
2023-05-14T09:51:58.700Z,12.94
2023-05-14T09:55:01.446Z,12.98
2023-05-14T09:58:04.130Z,12.95
2023-05-14T10:01:07.458Z,12.90
2023-05-14T10:04:10.119Z,12.88
2023-05-14T10:07:13.117Z,12.96
2023-05-14T10:10:20.389Z,12.93
2023-05-14T10:13:24.609Z,13.06
2023-05-14T10:16:38.536Z,13.13
2023-05-14T10:19:41.065Z,13.20
2023-05-14T10:22:43.336Z,13.15
2023-05-14T10:25:45.870Z,13.04
2023-05-14T10:28:48.541Z,13.05
2023-05-14T10:31:54.662Z,13.17
2023-05-14T10:34:56.878Z,12.98
2023-05-14T10:37:59.133Z,13.17
2023-05-14T10:41:01.291Z,13.13
2023-05-14T10:44:08.857Z,13.30
2023-05-14T10:47:11.623Z,13.52
2023-05-14T10:50:17.706Z,13.32
2023-05-14T10:53:20.380Z,13.28
2023-05-14T10:56:22.605Z,13.25
2023-05-14T10:59:28.482Z,13.20
2023-05-14T11:02:36.973Z,13.27
2023-05-14T11:05:41.015Z,13.29
2023-05-14T11:08:44.562Z,13.39
2023-05-14T11:11:47.749Z,13.43
2023-05-14T11:14:50.808Z,13.34
2023-05-14T11:17:53.730Z,13.25
2023-05-14T11:21:00.484Z,13.34
2023-05-14T11:24:03.767Z,13.27
2023-05-14T11:27:08.244Z,13.16
2023-05-14T11:30:15.213Z,13.33
2023-05-14T11:33:18.447Z,13.17
2023-05-14T11:36:20.748Z,13.26
2023-05-14T11:39:22.926Z,13.13
2023-05-14T11:42:25.866Z,13.14
2023-05-14T11:45:30.008Z,13.09
2023-05-14T11:48:32.732Z,13.02
2023-05-14T11:51:36.304Z,13.16
2023-05-14T11:54:38.507Z,13.12
2023-05-14T11:57:41.158Z,12.97
2023-05-14T12:00:45.602Z,12.90
2023-05-14T12:03:47.993Z,12.60
2023-05-14T12:06:51.758Z,12.67
2023-05-14T12:09:53.961Z,12.54
2023-05-14T12:12:56.139Z,12.51
2023-05-14T12:16:00.448Z,12.64
2023-05-14T12:19:02.744Z,12.63
2023-05-14T12:22:05.081Z,12.61
2023-05-14T12:25:15.381Z,12.65
2023-05-14T12:28:18.777Z,12.55
2023-05-14T12:31:31.248Z,12.55
2023-05-14T12:34:34.840Z,12.53
2023-05-14T12:37:39.976Z,12.56
2023-05-14T12:40:42.262Z,12.58
2023-05-14T12:43:44.937Z,12.44
2023-05-14T12:46:47.153Z,12.49
2023-05-14T12:49:49.481Z,12.48
2023-05-14T12:52:51.858Z,12.33
2023-05-14T12:55:55.064Z,12.42
2023-05-14T12:58:57.401Z,12.38
2023-05-14T13:01:59.634Z,12.30
2023-05-14T13:05:04.618Z,12.28
2023-05-14T13:08:06.918Z,12.27
2023-05-14T13:11:09.143Z,12.27
2023-05-14T13:14:11.360Z,12.32
2023-05-14T13:17:13.603Z,12.24
2023-05-14T13:20:17.807Z,12.23
2023-05-14T13:23:20.069Z,12.23
2023-05-14T13:26:22.586Z,12.24
2023-05-14T13:29:24.792Z,12.33
2023-05-14T13:32:27.031Z,12.21
2023-05-14T13:35:29.417Z,12.26
2023-05-14T13:38:31.721Z,12.29
2023-05-14T13:41:37.970Z,12.23
2023-05-14T13:44:40.247Z,12.27
2023-05-14T13:47:42.709Z,12.35
2023-05-14T13:50:44.950Z,12.23
2023-05-14T13:53:47.136Z,12.19
2023-05-14T13:56:49.269Z,12.21
2023-05-14T13:59:51.472Z,12.24
2023-05-14T14:02:53.869Z,12.27
2023-05-14T14:05:56.133Z,12.23
2023-05-14T14:08:58.393Z,12.13
2023-05-14T14:12:04.707Z,12.00
2023-05-14T14:15:07.682Z,12.04
2023-05-14T14:18:09.958Z,12.12
2023-05-14T14:21:12.144Z,11.98
2023-05-14T14:24:14.331Z,12.01
2023-05-14T14:27:16.485Z,11.93
2023-05-14T14:30:19.243Z,11.94
2023-05-14T14:33:21.437Z,11.96
2023-05-14T14:36:23.734Z,11.95
2023-05-14T14:39:26.546Z,12.02
2023-05-14T14:42:28.749Z,11.96
2023-05-14T14:45:31.113Z,12.04
2023-05-14T14:48:37.549Z,11.92
2023-05-14T14:51:39.746Z,11.94
2023-05-14T14:54:41.986Z,11.90
2023-05-14T14:57:44.231Z,11.88
2023-05-14T15:00:47.160Z,11.71
2023-05-14T15:03:49.596Z,11.76
2023-05-14T15:06:51.824Z,11.69
2023-05-14T15:09:55.532Z,11.67
2023-05-14T15:12:59.122Z,11.70
2023-05-14T15:16:01.346Z,11.63
2023-05-14T15:19:03.710Z,11.66
2023-05-14T15:22:06.021Z,11.57
2023-05-14T15:25:09.005Z,11.58
2023-05-14T15:28:11.288Z,11.50
2023-05-14T15:31:13.541Z,11.50
2023-05-14T15:34:15.810Z,11.53
2023-05-14T15:37:17.997Z,11.50
2023-05-14T15:40:20.291Z,11.51
2023-05-14T15:43:22.560Z,11.50
2023-05-14T15:46:25.022Z,11.51
2023-05-14T15:49:27.608Z,11.48
2023-05-14T15:52:30.123Z,11.42
2023-05-14T15:55:32.313Z,11.39
2023-05-14T15:58:34.519Z,11.39
2023-05-14T16:01:36.714Z,11.37
2023-05-14T16:04:39.332Z,11.31
2023-05-14T16:07:42.385Z,11.41
2023-05-14T16:10:44.547Z,11.39
2023-05-14T16:13:46.825Z,11.37
2023-05-14T16:16:49.592Z,11.36
2023-05-14T16:19:53.466Z,11.33
2023-05-14T16:22:58.280Z,11.35
2023-05-14T16:26:00.546Z,11.29
2023-05-14T16:29:02.766Z,11.34
2023-05-14T16:32:05.381Z,11.39
2023-05-14T16:35:08.022Z,11.43
2023-05-14T16:38:10.292Z,11.44
2023-05-14T16:41:12.480Z,11.44
2023-05-14T16:44:14.672Z,11.44
2023-05-14T16:47:16.922Z,11.41
2023-05-14T16:50:19.398Z,11.46
2023-05-14T16:53:21.599Z,11.49
2023-05-14T16:56:24.000Z,11.56
2023-05-14T16:59:26.159Z,11.46
2023-05-14T17:02:28.340Z,11.38
2023-05-14T17:05:30.716Z,11.45
2023-05-14T17:08:35.555Z,11.47
2023-05-14T17:11:37.874Z,11.42
2023-05-14T17:14:40.105Z,11.45
2023-05-14T17:17:42.287Z,11.42
2023-05-14T17:20:44.443Z,11.45
2023-05-14T17:23:46.660Z,11.37
2023-05-14T17:26:48.958Z,11.49
2023-05-14T17:29:51.262Z,11.36
2023-05-14T17:32:53.679Z,11.38
2023-05-14T17:35:56.148Z,11.30
2023-05-14T17:38:58.356Z,11.34
2023-05-14T17:42:00.690Z,11.31
2023-05-14T17:45:03.080Z,11.32
2023-05-14T17:48:05.795Z,11.37
2023-05-14T17:51:08.066Z,11.32
2023-05-14T17:54:10.400Z,11.36
2023-05-14T17:57:12.606Z,11.40
2023-05-14T18:00:15.034Z,11.35
2023-05-14T18:03:17.569Z,11.35
2023-05-14T18:06:19.865Z,11.25
2023-05-14T18:09:22.053Z,11.33
2023-05-14T18:12:27.512Z,11.38
2023-05-14T18:15:31.582Z,11.41
2023-05-14T18:18:33.940Z,11.49
2023-05-14T18:21:36.159Z,11.40
2023-05-14T18:24:38.540Z,11.38
2023-05-14T18:27:44.456Z,11.38
2023-05-14T18:30:46.858Z,11.49
2023-05-14T18:33:49.324Z,11.49
2023-05-14T18:36:51.534Z,11.49
2023-05-14T18:39:53.935Z,11.56
2023-05-14T18:42:56.797Z,11.56
2023-05-14T18:45:59.253Z,11.59
2023-05-14T18:49:01.486Z,11.58
2023-05-14T18:52:03.780Z,11.61
2023-05-14T18:55:06.382Z,11.55
2023-05-14T18:58:08.652Z,11.58
2023-05-14T19:01:10.921Z,11.66
2023-05-14T19:04:13.685Z,11.65
2023-05-14T19:07:15.964Z,11.60
2023-05-14T19:10:18.210Z,11.63
2023-05-14T19:13:20.497Z,11.64
2023-05-14T19:16:23.132Z,11.62
2023-05-14T19:19:25.478Z,11.62
2023-05-14T19:22:28.072Z,11.64
2023-05-14T19:25:30.644Z,11.61
2023-05-14T19:28:33.614Z,11.67
2023-05-14T19:31:35.938Z,11.58
2023-05-14T19:34:38.228Z,11.57
2023-05-14T19:37:40.608Z,11.66
2023-05-14T19:40:44.402Z,11.54
2023-05-14T19:43:47.225Z,11.53
2023-05-14T19:46:49.743Z,11.57
2023-05-14T19:49:57.270Z,11.53
2023-05-14T19:53:00.245Z,11.53
2023-05-14T19:56:03.585Z,11.50
2023-05-14T19:59:05.932Z,11.52
2023-05-14T20:02:09.235Z,11.57
2023-05-14T20:05:12.149Z,11.57
2023-05-14T20:08:14.472Z,11.60
2023-05-14T20:11:19.515Z,11.59
2023-05-14T20:14:22.051Z,11.59
2023-05-14T20:17:24.929Z,11.57
2023-05-14T20:20:29.491Z,11.59
2023-05-14T20:23:33.672Z,11.59
2023-05-14T20:26:35.998Z,11.60
2023-05-14T20:29:38.166Z,11.66
2023-05-14T20:32:40.513Z,11.56
2023-05-14T20:35:44.113Z,11.56
2023-05-14T20:38:47.413Z,11.60
2023-05-14T20:41:49.595Z,11.59
2023-05-14T20:44:52.880Z,11.55
2023-05-14T20:47:55.201Z,11.55
2023-05-14T20:50:57.554Z,11.53
2023-05-14T20:53:59.730Z,11.57
2023-05-14T20:57:01.908Z,11.56
2023-05-14T21:00:08.113Z,11.53
2023-05-14T21:03:10.441Z,11.54
2023-05-14T21:06:12.671Z,11.57
2023-05-14T21:09:14.907Z,11.65
2023-05-14T21:12:17.088Z,11.63
2023-05-14T21:15:19.277Z,11.62
2023-05-14T21:18:21.505Z,11.67
2023-05-14T21:21:23.733Z,11.74
2023-05-14T21:24:25.959Z,11.67
2023-05-14T21:27:28.186Z,11.67
2023-05-14T21:30:30.694Z,11.74
2023-05-14T21:33:33.037Z,11.68
2023-05-14T21:36:35.704Z,11.71
2023-05-14T21:39:37.956Z,11.64
2023-05-14T21:42:40.777Z,11.65
2023-05-14T21:45:43.854Z,11.67
2023-05-14T21:48:46.198Z,11.53
2023-05-14T21:51:53.064Z,11.63
2023-05-14T21:54:55.333Z,11.57
2023-05-14T21:57:57.623Z,11.63
2023-05-14T22:00:59.841Z,11.61
2023-05-14T22:04:02.118Z,11.55
2023-05-14T22:07:04.619Z,11.39
2023-05-14T22:10:07.424Z,11.50
2023-05-14T22:13:09.826Z,11.53
2023-05-14T22:16:13.747Z,11.39
2023-05-14T22:19:16.802Z,11.56
2023-05-14T22:22:19.189Z,11.62
2023-05-14T22:25:21.364Z,11.54
2023-05-14T22:28:23.674Z,11.51
2023-05-14T22:31:25.885Z,11.61
2023-05-14T22:34:28.085Z,11.63
2023-05-14T22:37:30.352Z,11.56
2023-05-14T22:40:32.580Z,11.55
2023-05-14T22:43:34.768Z,11.61
2023-05-14T22:46:37.024Z,11.63
2023-05-14T22:49:40.596Z,11.68
2023-05-14T22:52:42.774Z,11.62
2023-05-14T22:55:45.025Z,11.67
2023-05-14T22:58:47.789Z,11.58
2023-05-14T23:01:50.030Z,11.55
2023-05-14T23:04:52.585Z,11.53
2023-05-14T23:07:55.481Z,11.66
2023-05-14T23:10:57.639Z,11.60
2023-05-14T23:13:59.822Z,11.63
2023-05-14T23:17:02.004Z,11.55
2023-05-14T23:20:06.001Z,11.59
2023-05-14T23:23:08.394Z,11.60
2023-05-14T23:26:10.623Z,11.69
2023-05-14T23:29:12.802Z,11.68
2023-05-14T23:32:15.107Z,11.65
2023-05-14T23:35:17.359Z,11.69
2023-05-14T23:38:19.695Z,11.60
2023-05-14T23:41:22.552Z,11.58
2023-05-14T23:44:24.794Z,11.53
2023-05-14T23:47:27.015Z,11.55
2023-05-14T23:50:29.284Z,11.56
2023-05-14T23:53:31.510Z,11.64
2023-05-14T23:56:34.353Z,11.69
2023-05-14T23:59:36.570Z,11.80
